Terminal Aerodrome Forecast
Issued by NWS Quad Cities IA IL

Home | Current Version | Previous Version | Text Only | Print | Product List | Glossary On
Versions: 1 2 3 4 5 6 7 8 9 10 11 12 13 14 15 16 17 18
000
FTUS43 KDVN 020800 AAA
TAFMLI
TAF AMD
KMLI 020841Z 0209/0306 00000KT 5SM BR SKC
      TEMPO 0209/0212 3SM BR SCT002
     FM021400 05003KT P6SM SCT050=

USA.gov is the U.S. government's official web portal to all federal, state and local government web resources and services.